createdAt,value
2022-11-06T00:00:25.622Z,96873.00
2022-11-06T00:03:23.314Z,96878.28
2022-11-06T00:06:38.875Z,96881.78
2022-11-06T00:09:35.699Z,96871.44
2022-11-06T00:12:32.523Z,96864.50
2022-11-06T00:15:29.567Z,96865.34
2022-11-06T00:18:27.283Z,96863.22
2022-11-06T00:21:28.143Z,96860.84
2022-11-06T00:24:24.962Z,96857.91
2022-11-06T00:27:21.797Z,96850.25
2022-11-06T00:30:20.637Z,96857.94
2022-11-06T00:33:17.663Z,96852.09
2022-11-06T00:36:17.946Z,96856.34
2022-11-06T00:39:14.870Z,96854.50
2022-11-06T00:42:11.712Z,96859.00
2022-11-06T00:45:09.616Z,96845.72
2022-11-06T00:48:06.867Z,96843.06
2022-11-06T00:51:12.747Z,96846.53
2022-11-06T00:54:14.256Z,96847.31
2022-11-06T00:57:11.219Z,96846.78
2022-11-06T01:00:09.080Z,96846.53
2022-11-06T01:03:06.071Z,96844.94
2022-11-06T01:06:27.983Z,96849.19
2022-11-06T01:09:27.199Z,96851.03
2022-11-06T01:12:24.053Z,96842.28
2022-11-06T01:15:20.871Z,96836.41
2022-11-06T01:18:17.708Z,96831.13
2022-11-06T01:21:21.821Z,96838.31
2022-11-06T01:24:26.290Z,96832.69
2022-11-06T01:27:27.226Z,96833.53
2022-11-06T01:30:24.510Z,96823.41
2022-11-06T01:33:22.206Z,96822.38
2022-11-06T01:36:20.593Z,96823.69
2022-11-06T01:39:17.962Z,96823.69
2022-11-06T01:42:16.766Z,96821.03
2022-11-06T01:45:48.457Z,96809.09
2022-11-06T01:49:13.851Z,96806.97
2022-11-06T01:52:12.904Z,96798.75
2022-11-06T01:55:24.161Z,96798.75
2022-11-06T01:58:25.489Z,96810.16
2022-11-06T02:01:23.226Z,96819.47
2022-11-06T02:04:26.835Z,96818.13
2022-11-06T02:07:23.902Z,96815.50
2022-11-06T02:10:20.864Z,96809.34
2022-11-06T02:13:37.850Z,96807.25
2022-11-06T02:16:51.119Z,96806.72
2022-11-06T02:20:27.490Z,96808.84
2022-11-06T02:23:55.047Z,96803.53
2022-11-06T02:27:11.891Z,96790.00
2022-11-06T02:30:14.476Z,96794.22
2022-11-06T02:33:22.694Z,96790.78
2022-11-06T02:36:27.791Z,96786.53
2022-11-06T02:39:28.021Z,96788.69
2022-11-06T02:42:26.844Z,96791.06
2022-11-06T02:45:25.394Z,96790.78
2022-11-06T02:48:30.087Z,96780.44
2022-11-06T02:51:30.757Z,96775.91
2022-11-06T02:54:31.936Z,96787.91
2022-11-06T02:57:33.129Z,96779.66
2022-11-06T03:00:32.071Z,96785.75
2022-11-06T03:03:32.792Z,96778.56
2022-11-06T03:06:52.738Z,96783.88
2022-11-06T03:09:49.894Z,96778.84
2022-11-06T03:12:53.964Z,96773.78
2022-11-06T03:16:18.480Z,96776.72
2022-11-06T03:19:35.221Z,96766.59
2022-11-06T03:22:40.782Z,96766.09
2022-11-06T03:25:55.234Z,96763.94
2022-11-06T03:29:02.890Z,96756.00
2022-11-06T03:32:17.844Z,96758.63
2022-11-06T03:35:37.334Z,96761.59
2022-11-06T03:38:42.453Z,96759.19
2022-11-06T03:41:54.110Z,96771.13
2022-11-06T03:44:57.519Z,96772.47
2022-11-06T03:48:07.749Z,96760.50
2022-11-06T03:51:19.408Z,96764.69
2022-11-06T03:54:49.321Z,96761.25
2022-11-06T03:57:53.177Z,96756.75
2022-11-06T04:00:53.176Z,96762.31
2022-11-06T04:04:15.889Z,96760.47
2022-11-06T04:07:17.677Z,96765.97
2022-11-06T04:10:33.567Z,96759.38
2022-11-06T04:13:52.407Z,96758.84
2022-11-06T04:16:58.448Z,96768.16
2022-11-06T04:20:01.836Z,96761.25
2022-11-06T04:23:31.604Z,96760.41
2022-11-06T04:26:39.112Z,96765.44
2022-11-06T04:29:48.748Z,96775.78
2022-11-06T04:33:14.502Z,96772.63
2022-11-06T04:36:40.003Z,96768.41
2022-11-06T04:40:14.708Z,96763.38
2022-11-06T04:43:18.986Z,96776.38
2022-11-06T04:46:27.426Z,96762.56
2022-11-06T04:49:26.609Z,96761.50
2022-11-06T04:52:28.864Z,96766.81
2022-11-06T04:55:28.486Z,96760.19
2022-11-06T04:58:25.304Z,96762.31
2022-11-06T05:01:22.351Z,96748.22
2022-11-06T05:04:19.501Z,96762.59
2022-11-06T05:07:17.548Z,96759.94
2022-11-06T05:10:14.383Z,96753.28
2022-11-06T05:13:11.984Z,96749.31
2022-11-06T05:16:09.002Z,96749.00
2022-11-06T05:19:06.282Z,96744.81
2022-11-06T05:22:21.806Z,96738.47
2022-11-06T05:25:18.642Z,96741.09
2022-11-06T05:28:15.757Z,96734.16
2022-11-06T05:31:12.821Z,96738.97
2022-11-06T05:34:09.730Z,96724.91
2022-11-06T05:37:06.536Z,96736.03
2022-11-06T05:40:03.875Z,96724.88
2022-11-06T05:43:00.774Z,96724.13
2022-11-06T05:45:57.639Z,96723.06
2022-11-06T05:48:54.516Z,96705.53
2022-11-06T05:51:51.366Z,96716.16
2022-11-06T05:54:48.244Z,96718.00
2022-11-06T05:57:45.338Z,96707.69
2022-11-06T06:00:42.252Z,96708.72
2022-11-06T06:03:39.475Z,96705.00
2022-11-06T06:06:37.178Z,96706.34
2022-11-06T06:09:34.057Z,96709.00
2022-11-06T06:12:30.951Z,96711.91
2022-11-06T06:15:27.813Z,96709.25
2022-11-06T06:18:24.694Z,96714.00
2022-11-06T06:21:21.629Z,96717.72
2022-11-06T06:24:18.512Z,96725.13
2022-11-06T06:27:15.374Z,96717.44
2022-11-06T06:30:12.819Z,96722.78
2022-11-06T06:33:09.706Z,96730.97
2022-11-06T06:36:07.164Z,96732.03
2022-11-06T06:39:04.056Z,96746.59
2022-11-06T06:42:00.881Z,96743.44
2022-11-06T06:44:58.288Z,96742.09
2022-11-06T06:47:55.377Z,96747.97
2022-11-06T06:50:52.448Z,96755.66
2022-11-06T06:53:49.355Z,96752.19
2022-11-06T06:56:48.623Z,96757.50
2022-11-06T06:59:45.449Z,96760.16
2022-11-06T07:02:42.257Z,96758.88
2022-11-06T07:05:40.167Z,96753.53
2022-11-06T07:08:37.297Z,96755.94
2022-11-06T07:11:34.122Z,96753.81
2022-11-06T07:14:31.061Z,96750.09
2022-11-06T07:17:28.396Z,96743.16
2022-11-06T07:20:25.231Z,96736.56
2022-11-06T07:23:22.096Z,96737.38
2022-11-06T07:26:18.965Z,96730.50
2022-11-06T07:29:15.782Z,96740.25
2022-11-06T07:32:12.806Z,96738.97
2022-11-06T07:35:09.927Z,96728.66
2022-11-06T07:38:07.277Z,96728.91
2022-11-06T07:41:07.241Z,96716.72
2022-11-06T07:44:04.194Z,96722.56
2022-11-06T07:47:01.132Z,96719.91
2022-11-06T07:49:58.142Z,96714.63
2022-11-06T07:52:55.336Z,96710.63
2022-11-06T07:55:54.477Z,96711.16
2022-11-06T07:58:51.434Z,96707.16
2022-11-06T08:01:48.397Z,96714.56
2022-11-06T08:04:45.368Z,96706.34
2022-11-06T08:07:42.285Z,96693.31
2022-11-06T08:10:43.751Z,96685.13
2022-11-06T08:13:41.515Z,96683.00
2022-11-06T08:16:38.571Z,96685.66
2022-11-06T08:19:35.701Z,96678.22
2022-11-06T08:22:32.572Z,96674.50
2022-11-06T08:25:30.955Z,96667.06
2022-11-06T08:28:29.402Z,96682.97
2022-11-06T08:31:26.535Z,96675.28
2022-11-06T08:34:23.450Z,96680.34
2022-11-06T08:37:21.010Z,96675.03
2022-11-06T08:40:20.574Z,96680.34
2022-11-06T08:43:17.517Z,96673.69
2022-11-06T08:46:15.251Z,96675.56
2022-11-06T08:49:12.149Z,96665.16
2022-11-06T08:52:09.034Z,96668.66
2022-11-06T08:55:06.224Z,96666.25
2022-11-06T08:58:04.016Z,96658.75
2022-11-06T09:01:01.147Z,96659.84
2022-11-06T09:03:58.101Z,96678.44
2022-11-06T09:06:57.197Z,96668.28
2022-11-06T09:09:54.129Z,96658.41
2022-11-06T09:12:51.266Z,96663.53
2022-11-06T09:15:48.143Z,96660.88
2022-11-06T09:18:45.125Z,96655.72
2022-11-06T09:21:41.989Z,96654.16
2022-11-06T09:25:01.831Z,96660.88
2022-11-06T09:27:59.473Z,96650.16
2022-11-06T09:30:56.775Z,96648.56
2022-11-06T09:33:54.203Z,96644.56
2022-11-06T09:36:51.124Z,96639.50
2022-11-06T09:39:47.996Z,96644.13
2022-11-06T09:43:16.001Z,96645.06
2022-11-06T09:46:29.767Z,96645.28
2022-11-06T09:49:45.988Z,96632.97
2022-11-06T09:53:00.311Z,96640.22
2022-11-06T09:56:02.428Z,96647.41
2022-11-06T09:59:03.852Z,96642.06
2022-11-06T10:02:03.856Z,96637.22
2022-11-06T10:05:08.654Z,96629.38
2022-11-06T10:08:27.197Z,96628.03
2022-11-06T10:11:51.259Z,96623.56
2022-11-06T10:15:07.549Z,96632.56
2022-11-06T10:18:34.624Z,96619.06
2022-11-06T10:21:44.027Z,96609.59
2022-11-06T10:24:53.027Z,96600.75
2022-11-06T10:27:57.757Z,96588.31
2022-11-06T10:31:22.672Z,96591.25
2022-11-06T10:34:30.803Z,96590.56
2022-11-06T10:37:46.820Z,96597.78
2022-11-06T10:40:48.961Z,96586.69
2022-11-06T10:44:02.579Z,96589.47
2022-11-06T10:47:21.878Z,96579.06
2022-11-06T10:50:19.384Z,96568.81
2022-11-06T10:53:47.791Z,96560.75
2022-11-06T10:57:22.382Z,96561.84
2022-11-06T11:00:19.403Z,96557.44
2022-11-06T11:03:26.473Z,96551.97
2022-11-06T11:06:23.348Z,96550.44
2022-11-06T11:09:33.714Z,96533.75
2022-11-06T11:12:32.936Z,96529.50
2022-11-06T11:15:59.704Z,96505.56
2022-11-06T11:19:26.079Z,96490.84
2022-11-06T11:22:28.894Z,96480.16
2022-11-06T11:25:32.454Z,96481.13
2022-11-06T11:28:32.200Z,96485.88
2022-11-06T11:31:34.950Z,96476.41
2022-11-06T11:34:37.629Z,96471.50
2022-11-06T11:37:36.152Z,96473.50
2022-11-06T11:40:37.777Z,96473.16
2022-11-06T11:43:35.594Z,96471.69
2022-11-06T11:46:33.905Z,96465.75
2022-11-06T11:49:35.112Z,96466.06
2022-11-06T11:52:32.027Z,96462.50
2022-11-06T11:55:30.448Z,96456.81
2022-11-06T11:58:28.724Z,96449.22
2022-11-06T12:01:41.532Z,96445.53
2022-11-06T12:04:44.996Z,96432.41
2022-11-06T12:07:52.389Z,96428.47
2022-11-06T12:10:50.277Z,96421.31
2022-11-06T12:14:29.501Z,96402.34
2022-11-06T12:17:26.601Z,96394.94
2022-11-06T12:21:06.677Z,96400.03
2022-11-06T12:24:20.134Z,96397.22
2022-11-06T12:27:27.332Z,96395.72
2022-11-06T12:30:24.259Z,96394.50
2022-11-06T12:33:59.684Z,96393.19
2022-11-06T12:37:05.005Z,96387.13
2022-11-06T12:40:25.003Z,96374.91
2022-11-06T12:43:42.810Z,96374.69
2022-11-06T12:46:54.436Z,96381.31
2022-11-06T12:50:24.147Z,96364.28
2022-11-06T12:53:49.999Z,96357.53
2022-11-06T12:57:14.282Z,96336.84
2022-11-06T13:00:19.379Z,96331.91
2022-11-06T13:03:45.992Z,96330.41
2022-11-06T13:07:30.932Z,96325.84
2022-11-06T13:11:02.121Z,96312.91
2022-11-06T13:14:48.872Z,96300.84
2022-11-06T13:17:59.434Z,96283.44
2022-11-06T13:21:42.753Z,96281.03
2022-11-06T13:25:20.873Z,96283.91
2022-11-06T13:28:40.092Z,96280.53
2022-11-06T13:31:51.492Z,96273.09
2022-11-06T13:34:56.206Z,96269.09
2022-11-06T13:37:56.134Z,96260.66
2022-11-06T13:41:02.188Z,96255.34
2022-11-06T13:44:05.785Z,96255.16
2022-11-06T13:47:27.695Z,96246.84
2022-11-06T13:50:44.295Z,96251.72
2022-11-06T13:54:17.032Z,96237.66
2022-11-06T13:57:54.008Z,96225.41
2022-11-06T14:00:50.737Z,96229.28
2022-11-06T14:03:55.926Z,96223.75
2022-11-06T14:06:57.927Z,96219.09
2022-11-06T14:09:54.985Z,96226.41
2022-11-06T14:12:52.664Z,96244.09
2022-11-06T14:15:49.546Z,96236.72
2022-11-06T14:19:06.295Z,96225.44
2022-11-06T14:22:08.820Z,96231.34
2022-11-06T14:25:27.507Z,96221.56
2022-11-06T14:28:42.945Z,96224.34
2022-11-06T14:32:23.968Z,96227.00
2022-11-06T14:35:29.562Z,96232.22
2022-11-06T14:38:29.523Z,96223.50
2022-11-06T14:41:35.457Z,96233.06
2022-11-06T14:44:43.478Z,96220.66
2022-11-06T14:47:46.357Z,96218.69
2022-11-06T14:50:49.911Z,96214.56
2022-11-06T14:53:55.259Z,96210.34
2022-11-06T14:56:55.807Z,96211.34
2022-11-06T14:59:57.702Z,96204.09
2022-11-06T15:02:55.633Z,96198.09
2022-11-06T15:06:19.625Z,96194.44
2022-11-06T15:09:39.193Z,96179.94
2022-11-06T15:13:11.123Z,96187.72
2022-11-06T15:16:12.680Z,96196.13
2022-11-06T15:19:25.704Z,96199.28
2022-11-06T15:22:33.499Z,96189.19
2022-11-06T15:25:31.636Z,96203.19
2022-11-06T15:28:38.059Z,96197.06
2022-11-06T15:31:35.153Z,96200.75
2022-11-06T15:34:43.545Z,96198.94
2022-11-06T15:38:04.933Z,96201.16
2022-11-06T15:41:01.821Z,96204.63
2022-11-06T15:43:59.288Z,96187.22
2022-11-06T15:46:59.656Z,96201.59
2022-11-06T15:50:15.158Z,96206.91
2022-11-06T15:53:12.030Z,96195.00
2022-11-06T15:56:09.592Z,96180.41
2022-11-06T15:59:14.704Z,96177.78
2022-11-06T16:02:24.737Z,96168.69
2022-11-06T16:05:23.853Z,96173.84
2022-11-06T16:08:23.137Z,96176.41
2022-11-06T16:11:21.072Z,96173.91
2022-11-06T16:14:19.132Z,96183.72
2022-11-06T16:17:26.331Z,96172.78
2022-11-06T16:20:23.404Z,96173.06
2022-11-06T16:23:39.248Z,96176.28
2022-11-06T16:26:45.715Z,96177.06
2022-11-06T16:29:49.352Z,96182.03
2022-11-06T16:32:46.764Z,96188.72
2022-11-06T16:35:48.019Z,96186.88
2022-11-06T16:38:48.445Z,96186.91
2022-11-06T16:41:57.532Z,96190.34
2022-11-06T16:45:18.063Z,96191.72
2022-11-06T16:48:29.329Z,96186.69
2022-11-06T16:51:32.688Z,96192.47
2022-11-06T16:54:31.427Z,96189.72
2022-11-06T16:57:35.639Z,96187.94
2022-11-06T17:00:33.653Z,96190.66
2022-11-06T17:03:55.559Z,96178.53
2022-11-06T17:06:53.825Z,96181.72
2022-11-06T17:09:51.140Z,96188.28
2022-11-06T17:12:47.951Z,96192.97
2022-11-06T17:15:59.027Z,96186.00
2022-11-06T17:18:55.912Z,96185.03
2022-11-06T17:21:53.792Z,96179.44
2022-11-06T17:24:50.875Z,96184.81
2022-11-06T17:27:47.836Z,96182.50
2022-11-06T17:30:46.304Z,96183.81
2022-11-06T17:33:43.982Z,96188.38
2022-11-06T17:36:40.827Z,96185.66
2022-11-06T17:39:37.637Z,96188.22
2022-11-06T17:42:34.630Z,96183.63
2022-11-06T17:45:31.717Z,96184.25
2022-11-06T17:48:28.598Z,96189.91
2022-11-06T17:51:44.279Z,96191.16
2022-11-06T17:54:41.201Z,96188.03
2022-11-06T17:57:38.070Z,96185.97
2022-11-06T18:00:34.949Z,96172.66
2022-11-06T18:03:36.289Z,96181.03
2022-11-06T18:06:33.888Z,96180.47
2022-11-06T18:09:30.911Z,96185.22
2022-11-06T18:12:28.816Z,96181.47
2022-11-06T18:15:25.723Z,96173.66
2022-11-06T18:18:23.159Z,96173.75
2022-11-06T18:21:20.597Z,96171.31
2022-11-06T18:24:17.677Z,96173.22
2022-11-06T18:27:14.511Z,96165.53
2022-11-06T18:30:12.465Z,96168.38
2022-11-06T18:33:09.375Z,96162.53
2022-11-06T18:36:09.238Z,96177.47
2022-11-06T18:39:07.282Z,96175.81
2022-11-06T18:42:04.131Z,96180.41
2022-11-06T18:45:00.991Z,96185.03
2022-11-06T18:47:58.192Z,96184.53
2022-11-06T18:50:55.029Z,96179.16
2022-11-06T18:53:57.104Z,96192.69
2022-11-06T18:56:53.996Z,96195.09
2022-11-06T18:59:50.910Z,96186.91
2022-11-06T19:02:48.054Z,96179.44
2022-11-06T19:05:52.402Z,96174.38
2022-11-06T19:08:49.344Z,96168.75
2022-11-06T19:11:48.875Z,96165.53
2022-11-06T19:14:45.724Z,96160.53
2022-11-06T19:17:42.586Z,96146.09
2022-11-06T19:20:44.026Z,96165.97
2022-11-06T19:23:43.855Z,96158.97
2022-11-06T19:26:40.985Z,96153.66
2022-11-06T19:29:37.820Z,96155.75
2022-11-06T19:32:34.694Z,96151.53
2022-11-06T19:35:32.694Z,96145.69
2022-11-06T19:38:29.958Z,96133.53
2022-11-06T19:41:28.272Z,96139.28
2022-11-06T19:44:25.075Z,96137.66
2022-11-06T19:47:22.058Z,96143.09
2022-11-06T19:50:33.162Z,96135.78
2022-11-06T19:53:36.286Z,96151.53
2022-11-06T19:56:33.265Z,96143.59
2022-11-06T19:59:30.688Z,96148.06
2022-11-06T20:02:27.671Z,96138.66
2022-11-06T20:05:24.554Z,96131.25
2022-11-06T20:08:21.447Z,96126.09
2022-11-06T20:11:18.773Z,96126.94
2022-11-06T20:14:18.685Z,96105.69
2022-11-06T20:17:15.901Z,96116.97
2022-11-06T20:20:12.976Z,96111.88
2022-11-06T20:23:10.061Z,96100.44
2022-11-06T20:26:07.187Z,96102.19
2022-11-06T20:29:04.355Z,96103.03
2022-11-06T20:32:01.228Z,96121.72
2022-11-06T20:34:59.419Z,96134.88
2022-11-06T20:37:56.335Z,96114.09
2022-11-06T20:40:57.255Z,96123.91
2022-11-06T20:43:54.841Z,96123.06
2022-11-06T20:46:51.718Z,96126.44
2022-11-06T20:49:48.728Z,96124.94
2022-11-06T20:52:45.670Z,96126.53
2022-11-06T20:55:42.517Z,96132.63
2022-11-06T20:58:39.647Z,96133.47
2022-11-06T21:01:38.315Z,96124.19
2022-11-06T21:04:35.239Z,96124.16
2022-11-06T21:07:32.136Z,96120.97
2022-11-06T21:10:28.956Z,96135.78
2022-11-06T21:13:26.611Z,96140.19
2022-11-06T21:16:37.386Z,96148.78
2022-11-06T21:19:36.396Z,96148.56
2022-11-06T21:22:33.288Z,96154.50
2022-11-06T21:25:30.205Z,96165.06
2022-11-06T21:28:27.054Z,96171.63
2022-11-06T21:31:27.740Z,96180.13
2022-11-06T21:34:24.917Z,96184.13
2022-11-06T21:37:32.738Z,96184.38
2022-11-06T21:40:29.741Z,96178.09
2022-11-06T21:43:29.859Z,96172.03
2022-11-06T21:46:27.067Z,96170.38
2022-11-06T21:49:23.905Z,96166.09
2022-11-06T21:52:40.784Z,96168.19
2022-11-06T21:55:56.617Z,96164.97
2022-11-06T21:58:57.412Z,96153.78
2022-11-06T22:01:54.349Z,96158.78
2022-11-06T22:04:51.331Z,96165.41
2022-11-06T22:07:48.253Z,96166.19
2022-11-06T22:10:45.123Z,96164.16
2022-11-06T22:13:43.011Z,96173.47
2022-11-06T22:16:42.510Z,96175.25
2022-11-06T22:19:39.789Z,96170.50
2022-11-06T22:22:36.681Z,96181.19
2022-11-06T22:25:33.514Z,96177.53
2022-11-06T22:28:30.399Z,96192.44
2022-11-06T22:31:28.802Z,96185.72
2022-11-06T22:34:25.741Z,96188.63
2022-11-06T22:37:22.586Z,96187.28
2022-11-06T22:40:19.427Z,96190.19
2022-11-06T22:43:16.416Z,96190.75
2022-11-06T22:46:17.634Z,96188.75
2022-11-06T22:49:14.986Z,96203.06
2022-11-06T22:52:11.854Z,96206.47
2022-11-06T22:55:09.009Z,96204.03
2022-11-06T22:58:05.928Z,96206.25
2022-11-06T23:01:02.856Z,96205.19
2022-11-06T23:04:04.309Z,96193.47
2022-11-06T23:07:02.331Z,96202.25
2022-11-06T23:09:59.172Z,96204.00
2022-11-06T23:12:57.394Z,96195.00
2022-11-06T23:16:09.346Z,96197.13
2022-11-06T23:19:07.015Z,96196.06
2022-11-06T23:22:22.862Z,96200.59
2022-11-06T23:25:20.158Z,96193.94
2022-11-06T23:28:17.022Z,96198.97
2022-11-06T23:31:15.832Z,96201.56
2022-11-06T23:34:12.706Z,96216.22
2022-11-06T23:37:09.577Z,96220.53
2022-11-06T23:40:08.312Z,96224.25
2022-11-06T23:43:05.200Z,96213.63
2022-11-06T23:46:02.222Z,96219.38
2022-11-06T23:48:59.664Z,96227.63
2022-11-06T23:51:56.731Z,96220.75
2022-11-06T23:54:54.574Z,96238.34
2022-11-06T23:57:51.579Z,96228.94
